Time;durP1;ratioP1;P1;durP2;ratioP2;P2;SDS_P1;SDS_P2;PMS_P1;PMS_P2;Temp;Humidity;BMP_temperature;BMP_pressure;BME280_temperature;BME280_humidity;BME280_pressure;Samples;Min_cycle;Max_cycle;Signal;HPM_P1;HPM_P2
2021/05/01 00:01:31;;;;;;;39.20;24.33;;;5.70;99.90;;;;;;6249296;28;20463;-78
2021/05/01 00:04:32;;;;;;;35.72;25.73;;;5.70;99.90;;;;;;6249276;28;20133;-78
2021/05/01 00:07:34;;;;;;;34.40;25.65;;;5.60;99.90;;;;;;6250325;28;20049;-78
2021/05/01 00:10:36;;;;;;;37.78;23.67;;;5.50;99.90;;;;;;6248486;28;20048;-78
2021/05/01 00:13:37;;;;;;;45.10;28.23;;;5.50;99.90;;;;;;6249041;28;20118;-78
2021/05/01 00:16:39;;;;;;;41.10;28.75;;;5.40;99.90;;;;;;6249726;28;20473;-78
2021/05/01 00:19:40;;;;;;;33.95;26.58;;;5.40;99.90;;;;;;6249917;28;20128;-78
2021/05/01 00:22:41;;;;;;;40.90;27.92;;;5.40;99.90;;;;;;6251072;28;20144;-78
2021/05/01 00:25:44;;;;;;;37.22;26.50;;;5.40;99.90;;;;;;6249211;28;20087;-78
2021/05/01 00:28:45;;;;;;;43.80;27.58;;;5.30;99.90;;;;;;6248581;28;20132;-78
2021/05/01 00:31:47;;;;;;;36.75;28.75;;;5.30;99.90;;;;;;6249593;28;20057;-79
2021/05/01 00:34:48;;;;;;;35.03;24.48;;;5.20;99.90;;;;;;6249631;28;20167;-77
2021/05/01 00:37:49;;;;;;;34.33;22.92;;;5.10;99.90;;;;;;6248340;28;20053;-79
2021/05/01 00:40:52;;;;;;;34.28;23.88;;;5.00;99.90;;;;;;6248475;28;20151;-78
2021/05/01 00:43:53;;;;;;;32.17;25.55;;;5.00;99.90;;;;;;6248827;28;20081;-77
2021/05/01 00:46:55;;;;;;;35.60;25.55;;;4.90;99.90;;;;;;6248829;28;20132;-77
2021/05/01 00:49:56;;;;;;;35.70;22.58;;;4.90;99.90;;;;;;6248448;28;20080;-79
2021/05/01 00:52:57;;;;;;;36.17;24.67;;;4.80;99.90;;;;;;6248294;28;20132;-79
2021/05/01 00:56:00;;;;;;;37.53;23.27;;;4.80;99.90;;;;;;6248088;28;20446;-78
2021/05/01 00:59:02;;;;;;;38.88;24.98;;;4.80;99.90;;;;;;6248585;28;20053;-78
2021/05/01 01:02:04;;;;;;;43.13;28.02;;;4.80;99.90;;;;;;6247352;28;20519;-78
2021/05/01 01:05:06;;;;;;;39.00;25.27;;;4.70;99.90;;;;;;6247780;28;20069;-78
2021/05/01 01:08:08;;;;;;;34.20;24.52;;;4.70;99.90;;;;;;6247403;28;20069;-77
2021/05/01 01:11:10;;;;;;;33.42;23.38;;;4.60;99.90;;;;;;6247765;28;20099;-78
2021/05/01 01:14:13;;;;;;;39.95;26.83;;;4.60;99.90;;;;;;6248039;28;20065;-77
2021/05/01 01:17:14;;;;;;;32.67;22.83;;;4.60;99.90;;;;;;6248978;28;20045;-77
2021/05/01 01:20:15;;;;;;;35.35;24.70;;;4.50;99.90;;;;;;6248062;28;20080;-78
2021/05/01 01:23:18;;;;;;;40.20;23.52;;;4.40;99.90;;;;;;6249533;28;20049;-79
2021/05/01 01:26:20;;;;;;;37.83;26.25;;;4.40;99.90;;;;;;6248439;28;20054;-79
2021/05/01 01:29:21;;;;;;;37.75;25.67;;;4.40;99.90;;;;;;6249004;28;20503;-78
2021/05/01 01:32:22;;;;;;;40.08;25.27;;;4.30;99.90;;;;;;6248917;28;20061;-78
2021/05/01 01:35:24;;;;;;;35.25;26.00;;;4.30;99.90;;;;;;6249226;28;20534;-78
2021/05/01 01:38:26;;;;;;;39.22;27.75;;;4.30;99.90;;;;;;6249961;28;20570;-78
2021/05/01 01:41:28;;;;;;;37.92;25.48;;;4.20;99.90;;;;;;6253804;28;20057;-78
2021/05/01 01:44:29;;;;;;;39.40;26.10;;;4.20;99.90;;;;;;6254269;28;20041;-79
2021/05/01 01:47:31;;;;;;;35.05;23.17;;;4.20;99.90;;;;;;6254731;28;20412;-79
2021/05/01 01:50:32;;;;;;;37.63;23.73;;;4.20;99.90;;;;;;6253679;28;20140;-78
2021/05/01 01:53:34;;;;;;;35.30;23.85;;;4.10;99.90;;;;;;6253055;28;20516;-78
2021/05/01 01:56:37;;;;;;;35.60;23.75;;;4.10;99.90;;;;;;6251546;28;20128;-78
2021/05/01 01:59:38;;;;;;;33.58;23.17;;;4.10;99.90;;;;;;6251600;28;20071;-77
2021/05/01 02:02:40;;;;;;;30.38;21.10;;;4.10;99.90;;;;;;6252190;28;20403;-78
2021/05/01 02:05:41;;;;;;;33.00;22.30;;;4.00;99.90;;;;;;6251538;28;20128;-78
2021/05/01 02:08:44;;;;;;;33.03;22.48;;;3.90;99.90;;;;;;6251059;28;20037;-78
2021/05/01 02:11:45;;;;;;;33.93;21.57;;;3.90;99.90;;;;;;6255869;28;20076;-77
2021/05/01 02:14:46;;;;;;;36.10;23.85;;;3.90;99.90;;;;;;6253519;28;20101;-78
2021/05/01 02:17:50;;;;;;;41.83;23.57;;;3.80;99.90;;;;;;6251801;28;20045;-78
2021/05/01 02:20:51;;;;;;;34.67;22.63;;;3.80;99.90;;;;;;6251905;28;20132;-78
2021/05/01 02:23:54;;;;;;;39.90;27.07;;;3.70;99.90;;;;;;6252728;28;20077;-78
2021/05/01 02:26:55;;;;;;;39.33;24.37;;;3.60;99.90;;;;;;6251575;28;20084;-77
2021/05/01 02:29:56;;;;;;;38.27;25.27;;;3.60;99.90;;;;;;6251091;28;20180;-78
2021/05/01 02:32:59;;;;;;;39.00;24.70;;;3.50;99.90;;;;;;6251332;28;20522;-77
2021/05/01 02:36:00;;;;;;;41.47;27.50;;;3.50;99.90;;;;;;6251401;28;20509;-78
2021/05/01 02:39:03;;;;;;;34.33;24.40;;;3.40;99.90;;;;;;6257015;28;20128;-78
2021/05/01 02:42:06;;;;;;;38.27;23.63;;;3.30;99.90;;;;;;6251762;28;20050;-77
2021/05/01 02:45:09;;;;;;;37.50;20.50;;;3.30;99.90;;;;;;6250627;28;20056;-77
2021/05/01 02:48:11;;;;;;;30.63;22.23;;;3.20;99.90;;;;;;6250655;28;20124;-77
2021/05/01 02:51:13;;;;;;;31.70;21.37;;;3.20;99.90;;;;;;6251016;28;20126;-78
2021/05/01 02:54:15;;;;;;;34.83;21.73;;;3.10;99.90;;;;;;6250574;28;20068;-78
2021/05/01 02:57:16;;;;;;;31.73;21.13;;;3.10;99.90;;;;;;6250627;28;20068;-77
2021/05/01 03:00:21;;;;;;;31.93;21.40;;;3.00;99.90;;;;;;6250783;28;20048;-77
2021/05/01 03:03:22;;;;;;;36.50;23.40;;;3.00;99.90;;;;;;6251554;28;20056;-77
2021/05/01 03:06:23;;;;;;;38.80;21.67;;;3.00;99.90;;;;;;6260172;28;20073;-77
2021/05/01 03:09:26;;;;;;;34.57;22.10;;;3.00;99.90;;;;;;6274654;28;20094;-77
2021/05/01 03:12:28;;;;;;;36.27;23.80;;;3.00;99.90;;;;;;6276429;28;20041;-76
2021/05/01 03:15:29;;;;;;;36.03;23.33;;;2.90;99.90;;;;;;6277763;28;20041;-75
2021/05/01 03:18:30;;;;;;;31.07;21.47;;;2.90;99.90;;;;;;6276005;28;20048;-77
2021/05/01 03:21:32;;;;;;;32.00;20.67;;;2.90;99.90;;;;;;6278158;28;20414;-77
2021/05/01 03:24:34;;;;;;;36.97;23.17;;;2.90;99.90;;;;;;6275086;28;20049;-76
2021/05/01 03:27:36;;;;;;;37.57;22.37;;;2.90;99.90;;;;;;6275427;28;20556;-76
2021/05/01 03:30:37;;;;;;;34.93;24.47;;;2.90;99.90;;;;;;6275451;28;20148;-77
2021/05/01 03:33:39;;;;;;;36.80;24.17;;;2.80;99.90;;;;;;6275686;28;20049;-76
2021/05/01 03:36:40;;;;;;;34.50;24.47;;;2.90;99.90;;;;;;6276751;28;20041;-76
2021/05/01 03:39:42;;;;;;;32.20;22.87;;;2.80;99.90;;;;;;6275829;28;20056;-77
2021/05/01 03:42:44;;;;;;;41.10;24.87;;;2.80;99.90;;;;;;6276408;28;20136;-76
2021/05/01 03:45:45;;;;;;;38.70;23.80;;;2.90;99.90;;;;;;6275372;28;20099;-76
2021/05/01 03:48:46;;;;;;;34.40;22.53;;;2.80;99.90;;;;;;6274535;28;20549;-77
2021/05/01 03:51:48;;;;;;;34.50;23.07;;;2.70;99.90;;;;;;6274803;28;20087;-77
2021/05/01 03:54:50;;;;;;;34.63;24.23;;;2.70;99.90;;;;;;6274942;28;20110;-77
2021/05/01 03:57:52;;;;;;;38.63;23.93;;;2.80;99.90;;;;;;6275123;28;20621;-78
2021/05/01 04:00:54;;;;;;;33.37;21.80;;;2.70;99.90;;;;;;6274769;28;20089;-77
2021/05/01 04:03:55;;;;;;;36.00;24.27;;;2.70;99.90;;;;;;6274591;28;20136;-77
2021/05/01 04:06:56;;;;;;;33.90;21.60;;;2.70;99.90;;;;;;6275060;28;20056;-77
2021/05/01 04:09:59;;;;;;;31.03;22.17;;;2.70;99.90;;;;;;6275789;28;20422;-77
2021/05/01 04:13:00;;;;;;;33.40;21.20;;;2.70;99.90;;;;;;6276904;28;20073;-77
2021/05/01 04:16:01;;;;;;;33.87;22.33;;;2.60;99.90;;;;;;6275189;28;20037;-77
2021/05/01 04:19:03;;;;;;;34.07;21.80;;;2.60;99.90;;;;;;6274875;28;20140;-78
2021/05/01 04:22:04;;;;;;;34.73;20.83;;;2.60;99.90;;;;;;6277158;28;20120;-78
2021/05/01 04:25:08;;;;;;;31.50;22.37;;;2.60;99.90;;;;;;6274863;28;20073;-78
2021/05/01 04:28:09;;;;;;;34.23;23.47;;;2.70;99.90;;;;;;6274878;28;20620;-78
2021/05/01 04:31:11;;;;;;;38.40;26.73;;;2.80;99.90;;;;;;6274801;28;20145;-77
2021/05/01 04:34:12;;;;;;;31.27;23.03;;;2.80;99.90;;;;;;6273626;28;20051;-77
2021/05/01 04:37:13;;;;;;;34.43;23.60;;;2.90;99.90;;;;;;6273343;28;20132;-78
2021/05/01 04:40:16;;;;;;;30.40;23.33;;;2.90;99.90;;;;;;6273744;28;20048;-77
2021/05/01 04:43:21;;;;;;;31.00;21.57;;;3.00;99.90;;;;;;6275524;28;20136;-77
2021/05/01 04:46:23;;;;;;;30.90;21.40;;;3.10;99.90;;;;;;6273026;28;20099;-77
2021/05/01 04:49:24;;;;;;;31.53;21.57;;;3.20;99.90;;;;;;6273552;28;20056;-78
2021/05/01 04:52:25;;;;;;;28.97;21.50;;;3.30;99.90;;;;;;6273953;28;20051;-78
2021/05/01 04:55:28;;;;;;;29.07;20.83;;;3.30;99.90;;;;;;6273167;28;20132;-78
2021/05/01 04:58:29;;;;;;;29.83;19.60;;;3.40;99.90;;;;;;6272803;28;20110;-77
2021/05/01 05:01:31;;;;;;;32.83;22.40;;;3.40;99.90;;;;;;6273046;28;20470;-78
2021/05/01 05:04:32;;;;;;;33.80;23.03;;;3.50;99.90;;;;;;6273850;28;20072;-78
2021/05/01 05:07:34;;;;;;;30.10;20.57;;;3.60;99.90;;;;;;6273909;28;20076;-78
2021/05/01 05:10:36;;;;;;;32.80;22.17;;;3.70;99.90;;;;;;6273316;28;20131;-79
2021/05/01 05:13:37;;;;;;;30.23;21.13;;;3.80;99.90;;;;;;6273050;28;20128;-78
2021/05/01 05:16:38;;;;;;;31.87;21.50;;;3.90;99.90;;;;;;6273959;28;20056;-78
2021/05/01 05:19:40;;;;;;;24.97;18.30;;;4.10;99.90;;;;;;6272931;28;20052;-78
2021/05/01 05:22:42;;;;;;;26.97;19.23;;;4.40;99.90;;;;;;6273886;28;20060;-77
2021/05/01 05:25:44;;;;;;;29.63;18.40;;;4.70;99.90;;;;;;6273755;28;20080;-77
2021/05/01 05:28:45;;;;;;;24.90;19.65;;;5.00;99.90;;;;;;6273542;28;20128;-78
2021/05/01 05:31:46;;;;;;;25.27;18.90;;;5.30;99.90;;;;;;6273270;28;20195;-79
2021/05/01 05:34:48;;;;;;;28.85;19.42;;;5.70;99.90;;;;;;6276488;28;20512;-78
2021/05/01 05:37:50;;;;;;;24.83;20.63;;;6.00;99.90;;;;;;6281545;28;20128;-78
2021/05/01 05:40:52;;;;;;;24.70;19.13;;;6.40;99.90;;;;;;6274117;28;20071;-79
2021/05/01 05:43:53;;;;;;;25.20;19.98;;;6.70;99.90;;;;;;6275758;28;20053;-78
2021/05/01 05:46:55;;;;;;;25.92;20.42;;;6.90;99.90;;;;;;6273172;28;20060;-77
2021/05/01 05:49:56;;;;;;;29.17;21.30;;;7.20;99.90;;;;;;6277024;28;20064;-78
2021/05/01 05:52:58;;;;;;;24.60;18.67;;;7.50;99.90;;;;;;6275700;28;20080;-79
2021/05/01 05:56:00;;;;;;;26.02;20.02;;;7.80;99.90;;;;;;6278917;28;20045;-78
2021/05/01 05:59:02;;;;;;;24.30;19.50;;;8.10;99.90;;;;;;6281178;28;20076;-79
2021/05/01 06:02:04;;;;;;;27.77;20.25;;;8.40;99.90;;;;;;6277525;28;20076;-78
2021/05/01 06:05:10;;;;;;;24.67;19.60;;;8.60;99.90;;;;;;6264916;28;20061;-79
2021/05/01 06:08:11;;;;;;;23.58;19.15;;;8.80;99.90;;;;;;6278010;28;20095;-78
2021/05/01 06:11:17;;;;;;;23.23;17.15;;;9.00;99.10;;;;;;6282914;28;20044;-79
2021/05/01 06:14:20;;;;;;;26.23;16.67;;;9.10;99.20;;;;;;6293562;28;20068;-79
2021/05/01 06:17:22;;;;;;;21.05;18.10;;;9.30;98.30;;;;;;6292601;28;20045;-79
2021/05/01 06:20:23;;;;;;;21.85;16.13;;;9.80;97.00;;;;;;6273150;28;20038;-78
2021/05/01 06:23:25;;;;;;;18.38;16.20;;;10.30;96.20;;;;;;6285998;28;20094;-78
2021/05/01 06:26:27;;;;;;;20.35;17.10;;;10.70;94.10;;;;;;6281223;28;20505;-78
2021/05/01 06:29:30;;;;;;;24.55;19.77;;;10.80;93.50;;;;;;6278018;28;20106;-78
2021/05/01 06:32:31;;;;;;;19.70;16.17;;;10.70;93.90;;;;;;6292448;28;20051;-80
2021/05/01 06:35:33;;;;;;;22.63;17.85;;;10.60;93.90;;;;;;6289418;28;20045;-78
2021/05/01 06:38:35;;;;;;;23.02;19.55;;;10.60;94.20;;;;;;6276149;28;20565;-79
2021/05/01 06:41:42;;;;;;;20.92;17.08;;;10.80;94.90;;;;;;6276541;28;20422;-77
2021/05/01 06:44:49;;;;;;;24.58;19.08;;;11.00;94.20;;;;;;6275460;28;20052;-76
2021/05/01 06:47:53;;;;;;;23.58;19.02;;;11.10;93.30;;;;;;6275809;28;20064;-78
2021/05/01 06:50:59;;;;;;;22.30;17.80;;;11.10;93.80;;;;;;6276098;28;20060;-79
2021/05/01 06:54:01;;;;;;;21.55;18.60;;;11.20;93.60;;;;;;6278798;28;20166;-77
2021/05/01 06:57:05;;;;;;;21.25;17.65;;;11.30;93.50;;;;;;6276623;28;20051;-78
2021/05/01 07:00:08;;;;;;;20.80;18.55;;;11.40;92.30;;;;;;6276624;28;20565;-78
2021/05/01 07:03:11;;;;;;;22.98;18.05;;;11.50;92.30;;;;;;6276807;28;20048;-77
2021/05/01 07:06:14;;;;;;;19.42;15.10;;;11.60;92.20;;;;;;6275395;28;20128;-77
2021/05/01 07:09:15;;;;;;;18.95;16.65;;;11.60;91.40;;;;;;6275338;28;20076;-77
2021/05/01 07:12:20;;;;;;;17.73;15.75;;;11.60;90.70;;;;;;6275685;28;20131;-77
2021/05/01 07:15:22;;;;;;;19.05;15.82;;;11.60;91.20;;;;;;6278684;28;20045;-78
2021/05/01 07:18:23;;;;;;;15.02;13.48;;;11.70;89.10;;;;;;6279251;28;20045;-77
2021/05/01 07:21:24;;;;;;;19.50;16.23;;;11.60;88.00;;;;;;6263441;28;20065;-78
2021/05/01 07:24:27;;;;;;;17.95;14.85;;;11.60;89.10;;;;;;6250241;28;20578;-76
2021/05/01 07:27:32;;;;;;;14.20;12.65;;;11.60;89.30;;;;;;6250389;28;20046;-77
2021/05/01 07:30:39;;;;;;;16.42;13.82;;;11.50;85.70;;;;;;6249925;28;20075;-76
2021/05/01 07:33:45;;;;;;;16.05;13.98;;;11.40;85.70;;;;;;6250708;28;20145;-77
2021/05/01 07:36:49;;;;;;;16.45;13.43;;;11.40;87.70;;;;;;6248974;28;20045;-77
2021/05/01 07:39:52;;;;;;;15.23;12.70;;;11.60;87.30;;;;;;6249594;28;20583;-77
2021/05/01 07:42:55;;;;;;;15.38;13.63;;;11.90;85.70;;;;;;6250534;28;20518;-77
2021/05/01 07:46:05;;;;;;;14.20;11.88;;;11.90;81.60;;;;;;6249574;28;20127;-77
2021/05/01 07:49:07;;;;;;;17.10;13.73;;;11.70;81.50;;;;;;6250250;28;20057;-77
2021/05/01 07:52:09;;;;;;;14.82;11.82;;;11.50;81.40;;;;;;6249883;28;20487;-77
2021/05/01 07:55:11;;;;;;;14.13;12.48;;;11.50;81.90;;;;;;6250009;28;20084;-76
2021/05/01 07:58:14;;;;;;;13.68;11.75;;;11.50;82.60;;;;;;6248860;28;20065;-77
2021/05/01 08:01:15;;;;;;;13.52;11.13;;;11.60;80.10;;;;;;6248812;28;20131;-76
2021/05/01 08:04:16;;;;;;;13.65;12.25;;;11.80;79.50;;;;;;6248910;28;20105;-77
2021/05/01 08:07:18;;;;;;;17.00;13.48;;;11.90;81.20;;;;;;6249908;28;20140;-78
2021/05/01 08:10:19;;;;;;;15.25;12.20;;;11.90;78.30;;;;;;6248837;28;20045;-76
2021/05/01 08:13:22;;;;;;;13.40;11.25;;;12.10;79.00;;;;;;6256945;28;20045;-77
2021/05/01 08:16:23;;;;;;;12.43;10.75;;;12.30;82.00;;;;;;6273629;28;20064;-77
2021/05/01 08:19:24;;;;;;;13.70;11.80;;;12.30;79.10;;;;;;6273842;28;20135;-77
2021/05/01 08:22:26;;;;;;;15.18;13.43;;;12.30;79.20;;;;;;6265129;28;20045;-78
2021/05/01 08:25:28;;;;;;;17.00;11.68;;;12.40;77.10;;;;;;6249115;28;20080;-75
2021/05/01 08:28:30;;;;;;;13.63;12.25;;;12.20;76.20;;;;;;6248839;28;20042;-76
2021/05/01 08:31:32;;;;;;;14.70;12.73;;;11.90;76.20;;;;;;6249027;28;20084;-76
2021/05/01 08:34:33;;;;;;;19.25;12.80;;;11.80;80.00;;;;;;6248378;28;20124;-77
2021/05/01 08:37:34;;;;;;;14.10;11.77;;;11.90;79.20;;;;;;6248344;28;20448;-77
2021/05/01 08:40:37;;;;;;;14.15;11.88;;;12.10;79.60;;;;;;6250298;28;20128;-76
2021/05/01 08:43:39;;;;;;;16.40;13.45;;;12.10;78.40;;;;;;6248668;28;20060;-77
2021/05/01 08:46:40;;;;;;;16.02;12.25;;;12.10;77.90;;;;;;6248582;28;20049;-77
2021/05/01 08:49:42;;;;;;;12.90;11.52;;;12.10;79.80;;;;;;6248111;28;20080;-77
2021/05/01 08:52:43;;;;;;;16.00;13.27;;;12.10;79.30;;;;;;6247821;28;20065;-78
2021/05/01 08:55:44;;;;;;;16.67;13.32;;;12.20;78.50;;;;;;6247588;28;20203;-77
2021/05/01 08:58:48;;;;;;;13.93;12.48;;;12.20;77.50;;;;;;6248695;28;20053;-78
2021/05/01 09:01:50;;;;;;;18.25;14.52;;;12.20;77.90;;;;;;6248423;28;20079;-77
2021/05/01 09:04:53;;;;;;;19.73;14.88;;;12.10;79.10;;;;;;6247976;28;20050;-76
2021/05/01 09:07:56;;;;;;;17.02;14.38;;;12.10;77.10;;;;;;6247657;28;20154;-77
2021/05/01 09:11:03;;;;;;;19.00;13.50;;;12.10;75.90;;;;;;6248122;28;20084;-76
2021/05/01 09:14:19;;;;;;;15.65;12.43;;;12.10;78.00;;;;;;6247581;28;20045;-76
2021/05/01 09:17:20;;;;;;;17.73;14.90;;;12.40;77.20;;;;;;6247213;28;20056;-76
2021/05/01 09:20:23;;;;;;;16.48;13.05;;;12.60;76.10;;;;;;6258202;28;20419;-76
2021/05/01 09:23:36;;;;;;;15.88;13.88;;;13.00;75.00;;;;;;6271779;28;20144;-77
2021/05/01 09:26:40;;;;;;;16.55;14.15;;;13.20;73.10;;;;;;6272617;28;20554;-77
2021/05/01 09:29:42;;;;;;;17.92;14.73;;;13.30;73.50;;;;;;6271520;28;20052;-77
2021/05/01 09:32:44;;;;;;;18.40;16.48;;;13.40;71.20;;;;;;6272364;28;20044;-76
2021/05/01 09:35:48;;;;;;;16.58;14.85;;;13.30;71.00;;;;;;6272278;28;20152;-77
2021/05/01 09:38:50;;;;;;;18.13;15.95;;;13.10;72.70;;;;;;6272096;28;20522;-77
2021/05/01 09:41:52;;;;;;;19.27;15.55;;;13.30;72.00;;;;;;6272536;28;20076;-78
2021/05/01 09:45:08;;;;;;;18.60;16.70;;;13.30;71.30;;;;;;6272333;28;20139;-78
2021/05/01 09:48:18;;;;;;;22.80;17.63;;;13.40;70.00;;;;;;6272380;28;20052;-77
2021/05/01 09:51:19;;;;;;;18.05;16.13;;;13.50;70.00;;;;;;6273223;28;20128;-77
2021/05/01 09:54:25;;;;;;;19.73;16.40;;;13.60;71.00;;;;;;6275410;28;20533;-79
2021/05/01 09:57:26;;;;;;;19.15;17.15;;;13.70;69.90;;;;;;6274186;28;20072;-78
2021/05/01 10:00:29;;;;;;;24.30;15.85;;;14.00;68.30;;;;;;6279349;28;20045;-78
2021/05/01 10:03:30;;;;;;;21.75;17.52;;;14.00;67.60;;;;;;6280952;28;20051;-78
2021/05/01 10:06:32;;;;;;;17.27;15.20;;;14.10;67.90;;;;;;6280951;28;20422;-77
2021/05/01 10:09:35;;;;;;;21.10;16.33;;;14.30;66.50;;;;;;6278870;28;20144;-78
2021/05/01 10:12:37;;;;;;;21.67;17.83;;;14.40;66.50;;;;;;6279421;28;20101;-78
2021/05/01 10:15:41;;;;;;;19.42;17.23;;;14.50;66.40;;;;;;6284136;28;20072;-78
2021/05/01 10:19:03;;;;;;;21.95;18.40;;;14.60;65.50;;;;;;6285564;28;20080;-78
2021/05/01 10:22:24;;;;;;;20.15;16.35;;;14.90;65.50;;;;;;6254250;28;20128;-78
2021/05/01 10:25:26;;;;;;;21.70;16.75;;;15.20;63.40;;;;;;6267537;28;20041;-78
2021/05/01 10:28:27;;;;;;;21.80;16.98;;;15.20;64.10;;;;;;6260296;28;20049;-78
2021/05/01 10:31:44;;;;;;;18.83;15.95;;;15.30;62.90;;;;;;6252424;28;20053;-77
2021/05/01 10:34:47;;;;;;;18.10;16.27;;;15.60;62.30;;;;;;6253946;28;20483;-77
2021/05/01 10:37:54;;;;;;;22.30;18.08;;;15.80;61.20;;;;;;6252566;28;20136;-78
2021/05/01 10:40:58;;;;;;;20.63;16.83;;;15.50;61.30;;;;;;6254156;28;20133;-79
2021/05/01 10:44:01;;;;;;;22.17;16.25;;;15.40;62.90;;;;;;6261904;28;20041;-79
2021/05/01 10:47:13;;;;;;;21.70;17.30;;;15.50;63.70;;;;;;6260175;28;20064;-79
2021/05/01 10:50:19;;;;;;;20.13;16.95;;;15.50;59.20;;;;;;6257921;28;20418;-78
2021/05/01 10:53:21;;;;;;;23.25;18.45;;;15.30;61.80;;;;;;6251092;28;20071;-77
2021/05/01 10:56:28;;;;;;;17.77;15.63;;;15.40;61.50;;;;;;6251730;28;20041;-79
2021/05/01 10:59:31;;;;;;;19.48;17.42;;;15.60;60.80;;;;;;6254120;28;20049;-78
2021/05/01 11:02:35;;;;;;;17.48;15.60;;;15.80;60.80;;;;;;6251680;28;20050;-76
2021/05/01 11:05:42;;;;;;;20.35;17.67;;;15.80;60.30;;;;;;6251518;28;20109;-77
2021/05/01 11:08:53;;;;;;;18.40;16.27;;;15.60;59.10;;;;;;6250729;28;20124;-76
2021/05/01 11:11:59;;;;;;;19.90;15.57;;;15.60;59.90;;;;;;6249798;28;20132;-77
2021/05/01 11:15:04;;;;;;;21.77;17.70;;;15.60;60.00;;;;;;6272796;28;20045;-76
2021/05/01 11:18:07;;;;;;;19.15;16.48;;;15.60;59.20;;;;;;6275478;28;20124;-77
2021/05/01 11:21:11;;;;;;;19.65;17.30;;;15.30;59.20;;;;;;6275737;28;20138;-77
2021/05/01 11:24:13;;;;;;;19.80;17.80;;;15.10;60.10;;;;;;6276010;28;20570;-77
2021/05/01 11:27:14;;;;;;;22.27;18.45;;;15.00;59.80;;;;;;6252148;28;20081;-77
2021/05/01 11:30:18;;;;;;;22.58;18.00;;;15.00;59.50;;;;;;6252461;28;20052;-75
2021/05/01 11:33:21;;;;;;;23.55;19.40;;;15.00;60.00;;;;;;6251403;28;20465;-75
2021/05/01 11:36:29;;;;;;;23.48;14.70;;;15.20;61.20;;;;;;6252853;28;20475;-76
2021/05/01 11:39:31;;;;;;;21.77;17.40;;;15.20;61.00;;;;;;6258938;28;20037;-76
2021/05/01 11:42:32;;;;;;;20.10;17.58;;;15.00;58.90;;;;;;6280111;28;20288;-76
2021/05/01 11:45:37;;;;;;;19.50;17.50;;;14.80;59.10;;;;;;6278899;28;20560;-78
2021/05/01 11:48:45;;;;;;;22.13;17.98;;;14.60;60.20;;;;;;6279716;28;20041;-78
2021/05/01 11:52:13;;;;;;;23.25;16.63;;;14.80;60.20;;;;;;6279559;28;20049;-78
2021/05/01 11:55:21;;;;;;;21.08;17.08;;;15.00;58.70;;;;;;6278777;28;20054;-78
2021/05/01 11:58:30;;;;;;;18.83;15.65;;;15.00;58.80;;;;;;6277990;28;20033;-78
2021/05/01 12:01:33;;;;;;;17.13;15.32;;;15.20;59.70;;;;;;6277624;28;20037;-78
2021/05/01 12:04:49;;;;;;;19.08;16.38;;;15.30;59.50;;;;;;6263669;28;20041;-77
2021/05/01 12:07:57;;;;;;;20.42;16.67;;;15.30;60.20;;;;;;6251569;28;20089;-78
2021/05/01 12:10:58;;;;;;;20.13;17.08;;;15.50;60.30;;;;;;6251354;28;20419;-78
2021/05/01 12:14:00;;;;;;;22.92;20.35;;;15.60;58.70;;;;;;6264184;28;20048;-78
2021/05/01 12:17:12;;;;;;;18.95;16.67;;;15.40;57.50;;;;;;6278143;28;20140;-78
2021/05/01 12:20:17;;;;;;;22.25;18.13;;;15.20;59.50;;;;;;6276802;28;20064;-78
2021/05/01 12:23:44;;;;;;;18.25;16.45;;;15.20;58.80;;;;;;6278180;28;20576;-78
2021/05/01 12:26:45;;;;;;;19.92;17.80;;;15.50;59.00;;;;;;6272741;28;20047;-78
2021/05/01 12:29:46;;;;;;;20.60;18.02;;;15.70;57.80;;;;;;6278647;28;20055;-78
2021/05/01 12:32:48;;;;;;;20.13;17.13;;;15.90;58.00;;;;;;6278666;28;20585;-78
2021/05/01 12:35:51;;;;;;;19.42;17.10;;;16.10;56.60;;;;;;6277633;28;20049;-78
2021/05/01 12:38:55;;;;;;;23.20;18.92;;;15.90;57.00;;;;;;6277075;28;20056;-76
2021/05/01 12:41:56;;;;;;;21.92;19.38;;;15.70;57.80;;;;;;6277009;28;20068;-78
2021/05/01 12:44:57;;;;;;;19.33;16.55;;;15.60;58.40;;;;;;6277368;28;20049;-77
2021/05/01 12:47:59;;;;;;;17.40;15.52;;;15.60;56.80;;;;;;6275948;28;20072;-78
2021/05/01 12:51:15;;;;;;;18.83;14.90;;;15.50;57.40;;;;;;6278515;28;20044;-77
2021/05/01 12:54:35;;;;;;;18.35;16.25;;;15.50;57.00;;;;;;6273996;28;20502;-77
2021/05/01 12:57:39;;;;;;;18.75;16.80;;;15.40;57.40;;;;;;6272952;28;20091;-76
2021/05/01 13:00:41;;;;;;;19.40;16.85;;;15.10;56.30;;;;;;6273064;28;20071;-77
2021/05/01 13:04:13;;;;;;;20.27;17.73;;;15.00;56.60;;;;;;6273104;28;20049;-77
2021/05/01 13:07:18;;;;;;;23.02;18.95;;;14.60;57.60;;;;;;6273144;28;20049;-78
2021/05/01 13:10:21;;;;;;;19.98;16.42;;;14.60;58.70;;;;;;6272759;28;20072;-77
2021/05/01 13:13:33;;;;;;;22.20;16.95;;;14.70;59.40;;;;;;6272876;28;20045;-78
2021/05/01 13:17:04;;;;;;;18.13;16.25;;;15.00;59.00;;;;;;6272367;28;20036;-77
2021/05/01 13:20:17;;;;;;;18.13;16.20;;;15.10;57.80;;;;;;6272417;28;20128;-77
2021/05/01 13:23:19;;;;;;;18.42;15.73;;;15.10;58.20;;;;;;6272962;28;20171;-77
2021/05/01 13:26:22;;;;;;;21.60;16.73;;;15.00;58.20;;;;;;6268546;28;20522;-77
2021/05/01 13:29:28;;;;;;;20.75;16.77;;;15.20;58.40;;;;;;6264257;28;20071;-78
2021/05/01 13:32:30;;;;;;;19.17;16.27;;;15.20;58.40;;;;;;6274147;28;20040;-78
2021/05/01 13:35:33;;;;;;;18.58;15.07;;;15.20;58.40;;;;;;6277332;28;20136;-78
2021/05/01 13:38:35;;;;;;;19.40;16.23;;;15.10;58.20;;;;;;6276671;28;20053;-78
2021/05/01 13:41:36;;;;;;;20.02;15.63;;;15.10;58.50;;;;;;6278662;28;20087;-78
2021/05/01 13:44:42;;;;;;;17.95;16.02;;;15.10;57.70;;;;;;6275151;28;20118;-78
2021/05/01 13:47:48;;;;;;;19.30;17.15;;;15.00;58.80;;;;;;6275480;28;20049;-78
2021/05/01 13:50:50;;;;;;;18.42;15.25;;;15.10;58.80;;;;;;6276320;28;20084;-78
2021/05/01 13:53:51;;;;;;;18.67;15.30;;;15.10;58.40;;;;;;6273667;28;20131;-77
2021/05/01 13:56:53;;;;;;;17.02;14.45;;;14.90;57.80;;;;;;6272124;28;20423;-77
2021/05/01 13:59:58;;;;;;;18.55;14.05;;;14.60;58.30;;;;;;6272440;28;20056;-78
2021/05/01 14:03:03;;;;;;;14.60;13.07;;;14.40;59.70;;;;;;6272929;28;20150;-78
2021/05/01 14:06:05;;;;;;;19.08;14.45;;;14.40;60.80;;;;;;6273893;28;20124;-77
2021/05/01 14:09:07;;;;;;;17.85;14.55;;;14.40;61.50;;;;;;6271957;28;20053;-76
2021/05/01 14:12:09;;;;;;;21.05;17.27;;;14.40;60.00;;;;;;6272189;28;20045;-77
2021/05/01 14:15:17;;;;;;;17.30;14.32;;;14.40;59.50;;;;;;6273100;28;20553;-77
2021/05/01 14:18:20;;;;;;;;;;;14.40;61.00;;;;;;6273440;28;20691;-77
2021/05/01 14:21:26;;;;;;;17.63;15.70;;;14.30;59.80;;;;;;6272156;28;19920;-77
2021/05/01 14:24:28;;;;;;;18.70;15.25;;;14.40;59.90;;;;;;6276435;28;20447;-78
2021/05/01 14:27:45;;;;;;;16.42;13.93;;;14.30;60.40;;;;;;6270051;28;20088;-77
2021/05/01 14:31:03;;;;;;;17.30;15.18;;;14.20;60.70;;;;;;6253712;28;20060;-76
2021/05/01 14:34:06;;;;;;;24.73;16.23;;;14.20;61.70;;;;;;6251460;28;20499;-77
2021/05/01 14:37:08;;;;;;;20.65;16.30;;;14.10;61.90;;;;;;6254365;28;20053;-77
2021/05/01 14:40:12;;;;;;;20.63;16.85;;;14.10;62.00;;;;;;6251702;28;20072;-77
2021/05/01 14:43:21;;;;;;;18.42;15.30;;;14.00;61.60;;;;;;6247716;28;20054;-77
2021/05/01 14:46:24;;;;;;;20.88;17.00;;;14.10;62.50;;;;;;6249460;28;20045;-76
2021/05/01 14:49:27;;;;;;;18.58;15.95;;;14.20;62.30;;;;;;6251577;28;20045;-76
2021/05/01 14:52:33;;;;;;;19.13;16.15;;;14.10;62.50;;;;;;6251134;28;20041;-77
2021/05/01 14:55:34;;;;;;;18.42;16.45;;;14.30;62.00;;;;;;6252642;28;20132;-77
2021/05/01 14:58:38;;;;;;;20.58;18.50;;;14.20;61.60;;;;;;6268355;22;20042;-74
2021/05/01 15:01:42;;;;;;;21.35;17.08;;;14.10;62.50;;;;;;6236306;28;20414;-74
2021/05/01 15:04:50;;;;;;;18.40;15.95;;;14.10;63.20;;;;;;6236416;28;20070;-75
2021/05/01 15:07:53;;;;;;;18.15;15.45;;;14.20;62.60;;;;;;6221634;28;20061;-74
2021/05/01 15:10:55;;;;;;;19.13;16.67;;;14.20;63.30;;;;;;6200797;28;20133;-74
2021/05/01 15:14:16;;;;;;;21.33;17.10;;;14.10;62.80;;;;;;6212454;28;20555;-75
2021/05/01 15:17:17;;;;;;;21.55;17.25;;;13.90;63.60;;;;;;6224391;28;20088;-74
2021/05/01 15:20:25;;;;;;;19.33;17.05;;;13.80;63.90;;;;;;6224386;28;20062;-75
2021/05/01 15:23:32;;;;;;;20.95;17.08;;;13.70;64.20;;;;;;6224902;28;20136;-75
2021/05/01 15:26:33;;;;;;;19.25;15.73;;;13.60;64.60;;;;;;6224236;28;20137;-74
2021/05/01 15:29:35;;;;;;;23.50;18.20;;;13.50;65.00;;;;;;6217457;28;20195;-75
2021/05/01 15:32:36;;;;;;;17.20;14.95;;;13.50;66.00;;;;;;6199904;28;20129;-74
2021/05/01 15:35:39;;;;;;;19.92;15.23;;;13.60;65.90;;;;;;6199796;28;20126;-75